Time;durP1;ratioP1;P1;durP2;ratioP2;P2;SDS_P1;SDS_P2;PMS_P1;PMS_P2;Temp;Humidity;BMP_temperature;BMP_pressure;BME280_temperature;BME280_humidity;BME280_pressure;Samples;Min_cycle;Max_cycle;Signal;HPM_P1;HPM_P2
2022/03/27 00:00:06;;;;;;;7.93;6.53;;;11.10;99.90;;;;;;5084405;28;20450;-70
2022/03/27 00:02:34;;;;;;;9.33;7.20;;;11.00;99.90;;;;;;5082267;28;20542;-72
2022/03/27 00:05:00;;;;;;;6.77;5.47;;;11.00;99.90;;;;;;5066484;28;20487;-70
2022/03/27 00:07:27;;;;;;;7.93;5.90;;;11.00;99.90;;;;;;5071261;28;20520;-70
2022/03/27 00:09:53;;;;;;;8.20;6.23;;;10.90;99.90;;;;;;5078003;28;20605;-71
2022/03/27 00:12:21;;;;;;;8.50;5.83;;;10.90;99.90;;;;;;5076246;28;20953;-71
2022/03/27 00:14:47;;;;;;;10.00;6.10;;;10.90;99.90;;;;;;5083417;28;20485;-71
2022/03/27 00:17:14;;;;;;;10.30;6.67;;;10.90;99.90;;;;;;5069399;28;20485;-70
2022/03/27 00:19:43;;;;;;;9.60;5.97;;;10.90;99.90;;;;;;5076904;28;20454;-70
2022/03/27 00:22:10;;;;;;;11.17;7.27;;;10.90;99.90;;;;;;5081637;28;20459;-71
2022/03/27 00:24:36;;;;;;;7.97;6.07;;;10.80;99.90;;;;;;5087505;28;20973;-70
2022/03/27 00:27:04;;;;;;;8.80;5.60;;;10.80;99.90;;;;;;5080734;28;20488;-71
2022/03/27 00:29:30;;;;;;;9.70;6.63;;;10.80;99.90;;;;;;5084697;28;20528;-70
2022/03/27 00:31:57;;;;;;;12.27;7.67;;;10.80;99.90;;;;;;5073851;28;20504;-70
2022/03/27 00:34:24;;;;;;;7.37;6.03;;;10.80;99.90;;;;;;5075190;28;20969;-71
2022/03/27 00:36:52;;;;;;;14.43;7.60;;;10.80;99.90;;;;;;5088133;28;20869;-70
2022/03/27 00:39:19;;;;;;;9.07;7.53;;;10.80;99.90;;;;;;5062466;28;20458;-70
2022/03/27 00:41:45;;;;;;;10.77;7.97;;;10.80;99.90;;;;;;5085807;28;20548;-70
2022/03/27 00:44:12;;;;;;;8.27;7.13;;;10.80;99.90;;;;;;5069878;28;20475;-71
2022/03/27 00:46:39;;;;;;;11.90;8.40;;;10.80;99.90;;;;;;5078370;28;20525;-70
2022/03/27 00:49:05;;;;;;;8.53;7.60;;;10.70;99.90;;;;;;5074797;28;20525;-70
2022/03/27 00:51:32;;;;;;;8.97;6.77;;;10.70;99.90;;;;;;5072054;28;20445;-71
2022/03/27 00:54:00;;;;;;;7.00;6.30;;;10.70;99.90;;;;;;5071612;28;21076;-70
2022/03/27 00:56:27;;;;;;;12.77;8.27;;;10.60;99.90;;;;;;5072529;28;20566;-70
2022/03/27 00:58:53;;;;;;;9.93;6.37;;;10.60;99.90;;;;;;5087162;28;20458;-71
2022/03/27 01:01:24;;;;;;;7.53;6.30;;;10.60;99.90;;;;;;5073002;28;20513;-70
2022/03/27 01:03:53;;;;;;;10.10;7.67;;;10.50;99.90;;;;;;5080927;28;20455;-71
2022/03/27 01:06:29;;;;;;;10.87;7.33;;;10.60;99.90;;;;;;5069710;28;20474;-70
2022/03/27 01:11:41;;;;;;;9.80;6.40;;;10.60;99.90;;;;;;5072345;28;20511;-70
2022/03/27 01:14:08;;;;;;;11.87;7.20;;;10.50;99.90;;;;;;5080583;28;20495;-71
2022/03/27 01:16:40;;;;;;;7.10;6.10;;;10.40;99.90;;;;;;5086899;28;20450;-71
2022/03/27 01:19:08;;;;;;;7.97;6.97;;;10.40;99.90;;;;;;5086175;28;20584;-70
2022/03/27 01:21:38;;;;;;;6.53;5.77;;;10.40;99.90;;;;;;5086026;28;20455;-71
2022/03/27 01:24:06;;;;;;;7.80;6.43;;;10.40;99.90;;;;;;5074150;28;20494;-70
2022/03/27 01:26:33;;;;;;;7.90;6.43;;;10.40;99.90;;;;;;5082210;28;20454;-70
2022/03/27 01:29:00;;;;;;;8.10;7.00;;;10.40;99.90;;;;;;5086980;28;20481;-70
2022/03/27 01:31:27;;;;;;;7.83;5.73;;;10.40;99.90;;;;;;5078807;28;20520;-70
2022/03/27 01:33:54;;;;;;;8.00;6.43;;;10.30;99.90;;;;;;5073585;28;20518;-71
2022/03/27 01:36:23;;;;;;;7.90;6.87;;;10.30;99.90;;;;;;5071925;28;20464;-71
2022/03/27 01:38:51;;;;;;;10.00;6.70;;;10.30;99.90;;;;;;5076357;28;20892;-71
2022/03/27 01:41:18;;;;;;;7.60;6.80;;;10.30;99.90;;;;;;5072865;28;20454;-70
2022/03/27 01:43:45;;;;;;;12.03;7.57;;;10.30;99.90;;;;;;5086673;28;20485;-70
2022/03/27 01:46:12;;;;;;;11.40;7.43;;;10.20;99.90;;;;;;5080103;28;20596;-71
2022/03/27 01:48:38;;;;;;;13.87;8.30;;;10.20;99.90;;;;;;5078920;28;20523;-70
2022/03/27 01:51:05;;;;;;;8.60;7.70;;;10.20;99.90;;;;;;5076689;28;20458;-69
2022/03/27 01:53:32;;;;;;;7.00;6.30;;;10.20;99.90;;;;;;5074701;28;20528;-70
2022/03/27 01:56:00;;;;;;;11.33;8.90;;;10.20;99.90;;;;;;5070025;28;20548;-70
2022/03/27 01:58:27;;;;;;;8.80;6.70;;;10.20;99.90;;;;;;5071186;28;20515;-70
2022/03/27 02:00:53;;;;;;;10.00;7.40;;;10.10;99.90;;;;;;5085695;28;20458;-69
2022/03/27 02:03:20;;;;;;;9.73;7.40;;;10.10;99.90;;;;;;5076093;28;20453;-71
2022/03/27 02:05:46;;;;;;;8.40;7.30;;;10.10;99.90;;;;;;5068629;28;20597;-69
2022/03/27 02:08:13;;;;;;;8.33;6.90;;;10.10;99.90;;;;;;5070635;28;20537;-69
2022/03/27 02:10:41;;;;;;;9.57;7.50;;;10.10;99.90;;;;;;5065712;28;20965;-70
2022/03/27 02:13:13;;;;;;;7.10;6.17;;;10.00;99.90;;;;;;5084517;28;20485;-69
2022/03/27 02:15:40;;;;;;;8.33;7.43;;;10.00;99.90;;;;;;5085608;28;20477;-69
2022/03/27 02:18:09;;;;;;;10.93;7.50;;;9.90;99.90;;;;;;5081155;28;20555;-69
2022/03/27 02:20:35;;;;;;;10.00;7.83;;;9.90;99.90;;;;;;5073801;28;20452;-69
2022/03/27 02:23:02;;;;;;;10.87;7.40;;;9.80;99.90;;;;;;5069040;28;21155;-70
2022/03/27 02:25:29;;;;;;;13.30;8.30;;;9.80;99.90;;;;;;5065767;28;20479;-70
2022/03/27 02:27:55;;;;;;;11.43;7.53;;;9.80;99.90;;;;;;5067029;28;20451;-69
2022/03/27 02:30:23;;;;;;;8.23;6.67;;;9.80;99.90;;;;;;5080679;28;20565;-69
2022/03/27 02:32:50;;;;;;;9.37;7.83;;;9.80;99.90;;;;;;5069814;28;20467;-69
2022/03/27 02:35:17;;;;;;;10.07;7.80;;;9.70;99.90;;;;;;5078399;28;20470;-70
2022/03/27 02:37:44;;;;;;;12.53;7.40;;;9.70;99.90;;;;;;5073605;28;20449;-69
2022/03/27 02:40:11;;;;;;;8.73;7.83;;;9.70;99.90;;;;;;5069758;28;20465;-69
2022/03/27 02:42:37;;;;;;;9.67;8.10;;;9.70;99.90;;;;;;5065869;28;20815;-69
2022/03/27 02:45:05;;;;;;;10.47;8.00;;;9.70;99.90;;;;;;5074229;28;21073;-69
2022/03/27 02:47:33;;;;;;;12.17;9.07;;;9.60;99.90;;;;;;5075113;28;20456;-67
2022/03/27 02:50:01;;;;;;;10.77;8.00;;;9.60;99.90;;;;;;5077563;28;20511;-67
2022/03/27 02:52:27;;;;;;;10.43;8.03;;;9.60;99.90;;;;;;5070783;28;20446;-69
2022/03/27 02:54:54;;;;;;;13.33;9.47;;;9.60;99.90;;;;;;5078377;28;20531;-69
2022/03/27 02:57:20;;;;;;;14.17;9.10;;;9.60;99.90;;;;;;5072543;28;20454;-71
2022/03/27 02:59:48;;;;;;;10.97;9.13;;;9.60;99.90;;;;;;5081941;28;20542;-71
2022/03/27 03:02:14;;;;;;;13.65;9.65;;;9.50;99.90;;;;;;5085351;28;20465;-71
2022/03/27 03:04:42;;;;;;;;;;;9.50;99.90;;;;;;5085986;28;20503;-70
2022/03/27 03:07:09;;;;;;;;;;;9.50;99.90;;;;;;5075263;28;19976;-71
2022/03/27 03:09:36;;;;;;;;;;;9.60;99.90;;;;;;5078622;28;20043;-71
2022/03/27 03:12:03;;;;;;;;;;;9.60;99.90;;;;;;5075343;28;20050;-70
2022/03/27 03:14:30;;;;;;;;;;;9.50;99.90;;;;;;5078836;28;20412;-70
2022/03/27 03:16:57;;;;;;;;;;;9.50;99.90;;;;;;5085695;28;19968;-70
2022/03/27 03:19:24;;;;;;;;;;;9.50;99.90;;;;;;5085962;28;20421;-71
2022/03/27 03:21:52;;;;;;;;;;;9.40;99.90;;;;;;5078014;28;20363;-70
2022/03/27 03:24:18;;;;;;;;;;;9.40;99.90;;;;;;5072893;28;20027;-70
2022/03/27 03:26:45;;;;;;;;;;;9.40;99.90;;;;;;5069859;28;20016;-70
2022/03/27 03:29:11;;;;;;;;;;;9.30;99.90;;;;;;5068945;28;19925;-71
2022/03/27 03:31:38;;;;;;;;;;;9.30;99.90;;;;;;5078054;28;19932;-70
2022/03/27 03:34:04;;;;;;;;;;;9.20;99.90;;;;;;5081774;28;20012;-70
2022/03/27 03:36:31;;;;;;;;;;;9.20;99.90;;;;;;5083214;28;19932;-70
2022/03/27 03:38:59;;;;;;;;;;;9.20;99.90;;;;;;5072116;28;19989;-69
2022/03/27 03:41:26;;;;;;;;;;;9.20;99.90;;;;;;5065388;28;19925;-69
2022/03/27 03:43:52;;;;;;;;;;;9.20;99.90;;;;;;5081697;28;19935;-70
2022/03/27 03:46:19;;;;;;;;;;;9.10;99.90;;;;;;5078077;28;20442;-70
2022/03/27 03:48:45;;;;;;;;;;;9.10;99.90;;;;;;5081688;28;19931;-70
2022/03/27 03:51:12;;;;;;;;;;;9.10;99.90;;;;;;5080463;28;19932;-70
2022/03/27 03:53:38;;;;;;;;;;;9.10;99.90;;;;;;5073138;28;20001;-70
2022/03/27 03:56:07;;;;;;;;;;;9.10;99.90;;;;;;5073707;28;19928;-70
2022/03/27 03:58:33;;;;;;;;;;;9.10;99.90;;;;;;5085874;28;19932;-69
2022/03/27 04:01:00;;;;;;;;;;;9.00;99.90;;;;;;5073566;28;20024;-72
2022/03/27 04:03:26;;;;;;;;;;;8.90;99.90;;;;;;5069858;28;20419;-71
2022/03/27 04:05:53;;;;;;;;;;;8.90;99.90;;;;;;5072470;28;19932;-71
2022/03/27 04:08:19;;;;;;;;;;;8.80;99.90;;;;;;5073409;28;19928;-70
2022/03/27 04:10:46;;;;;;;;;;;8.80;99.90;;;;;;5075173;28;19978;-70
2022/03/27 04:13:14;;;;;;;;;;;8.70;99.90;;;;;;5072628;28;19970;-70
2022/03/27 04:15:41;;;;;;;;;;;8.60;99.90;;;;;;5081246;28;20020;-71
2022/03/27 04:18:07;;;;;;;;;;;8.60;99.90;;;;;;5087210;28;19924;-70
2022/03/27 04:20:34;;;;;;;;;;;8.60;99.90;;;;;;5079115;28;19947;-70
2022/03/27 04:23:02;;;;;;;68.03;66.22;;;8.50;99.90;;;;;;5083971;28;20492;-71
2022/03/27 04:25:28;;;;;;;13.57;10.38;;;8.50;99.90;;;;;;5066243;28;20217;-70
2022/03/27 04:27:55;;;;;;;12.80;9.02;;;8.40;99.90;;;;;;5071761;28;20264;-71
2022/03/27 04:30:23;;;;;;;19.58;9.48;;;8.40;99.90;;;;;;5069509;28;20606;-70
2022/03/27 04:32:50;;;;;;;12.68;9.55;;;8.30;99.90;;;;;;5075511;28;20200;-70
2022/03/27 04:35:17;;;;;;;15.05;11.32;;;8.30;99.90;;;;;;5074663;28;20378;-71
2022/03/27 04:37:46;;;;;;;;;;;8.30;99.90;;;;;;5086283;28;20212;-70
2022/03/27 04:40:14;;;;;;;15.25;13.05;;;8.30;99.90;;;;;;5067102;28;20490;-70
2022/03/27 04:42:41;;;;;;;15.30;12.30;;;8.20;99.90;;;;;;5086859;28;20243;-70
2022/03/27 04:45:09;;;;;;;11.98;10.10;;;8.20;99.90;;;;;;5082343;28;20247;-70
2022/03/27 04:47:38;;;;;;;12.35;9.68;;;8.20;99.90;;;;;;5078815;28;20200;-70
2022/03/27 04:50:06;;;;;;;12.88;10.45;;;8.20;99.90;;;;;;5070018;28;20197;-70
2022/03/27 04:52:32;;;;;;;15.48;11.52;;;8.10;99.90;;;;;;5086120;28;20282;-70
2022/03/27 04:54:59;;;;;;;15.52;11.38;;;8.20;99.90;;;;;;5068722;28;20240;-70
2022/03/27 04:57:32;;;;;;;13.43;10.63;;;8.10;99.90;;;;;;5086576;28;20227;-70
2022/03/27 04:59:58;;;;;;;14.15;10.93;;;8.10;99.90;;;;;;5086293;28;20668;-70
2022/03/27 05:02:26;;;;;;;12.27;9.52;;;8.00;99.90;;;;;;5086644;28;20226;-69
2022/03/27 05:04:53;;;;;;;11.00;9.75;;;8.00;99.90;;;;;;5081254;28;20223;-71
2022/03/27 05:07:20;;;;;;;14.10;10.30;;;8.00;99.90;;;;;;5073661;28;20208;-70
2022/03/27 05:09:47;;;;;;;10.65;9.00;;;8.00;99.90;;;;;;5068674;28;20214;-70
2022/03/27 05:12:13;;;;;;;9.65;8.65;;;7.90;99.90;;;;;;5077279;28;20262;-70
2022/03/27 05:14:40;;;;;;;12.07;10.85;;;7.90;99.90;;;;;;5086725;28;20232;-71
2022/03/27 05:17:07;;;;;;;12.32;10.60;;;7.90;99.90;;;;;;5087364;28;20609;-69
2022/03/27 05:19:33;;;;;;;15.10;10.60;;;7.90;99.90;;;;;;5078277;28;20200;-69
2022/03/27 05:22:01;;;;;;;14.65;11.00;;;7.90;99.90;;;;;;5071908;28;20653;-70
2022/03/27 05:24:28;;;;;;;16.05;11.65;;;7.80;99.90;;;;;;5079427;28;20279;-70
2022/03/27 05:26:55;;;;;;;11.02;9.25;;;7.80;99.90;;;;;;5073975;28;20295;-69
2022/03/27 05:29:22;;;;;;;11.20;10.13;;;7.80;99.90;;;;;;5065190;28;20205;-69
2022/03/27 05:31:49;;;;;;;13.50;11.02;;;7.70;99.90;;;;;;5070337;28;20282;-70
2022/03/27 05:34:15;;;;;;;12.10;10.38;;;7.70;99.90;;;;;;5075071;28;20238;-69
2022/03/27 05:36:42;;;;;;;12.43;9.85;;;7.70;99.90;;;;;;5074361;28;20624;-69
2022/03/27 05:39:10;;;;;;;15.60;11.13;;;7.70;99.90;;;;;;5067008;28;20294;-70
2022/03/27 05:41:36;;;;;;;12.73;11.32;;;7.70;99.90;;;;;;5078517;28;20211;-69
2022/03/27 05:44:03;;;;;;;14.13;9.25;;;7.70;99.90;;;;;;5085637;28;20316;-70
2022/03/27 05:46:30;;;;;;;11.35;9.98;;;7.70;99.90;;;;;;5071352;28;20196;-69
2022/03/27 05:48:57;;;;;;;16.02;11.82;;;7.70;99.90;;;;;;5080915;28;20205;-70
2022/03/27 05:51:24;;;;;;;12.38;9.95;;;7.80;99.90;;;;;;5065384;28;20204;-69
2022/03/27 05:53:50;;;;;;;13.55;10.27;;;7.90;99.90;;;;;;5074876;28;20208;-70
2022/03/27 05:56:18;;;;;;;13.40;10.55;;;8.00;99.90;;;;;;5073001;28;20743;-70
2022/03/27 05:58:45;;;;;;;12.00;10.63;;;8.00;99.90;;;;;;5085356;28;20687;-72
2022/03/27 06:01:12;;;;;;;17.58;11.25;;;8.10;99.90;;;;;;5073401;28;20262;-69
2022/03/27 06:03:38;;;;;;;13.57;10.57;;;8.20;99.90;;;;;;5076666;28;20270;-70
2022/03/27 06:06:05;;;;;;;12.95;9.57;;;8.30;99.90;;;;;;5066007;28;20255;-68
2022/03/27 06:08:32;;;;;;;13.45;10.43;;;8.40;99.90;;;;;;5065949;28;20540;-70
2022/03/27 06:10:58;;;;;;;13.35;10.95;;;8.40;99.90;;;;;;5071090;28;20220;-69
2022/03/27 06:13:27;;;;;;;10.90;9.75;;;8.50;99.90;;;;;;5066454;28;20264;-69
2022/03/27 06:15:54;;;;;;;16.45;11.77;;;8.50;99.90;;;;;;5065650;28;20758;-67
2022/03/27 06:18:21;;;;;;;11.23;10.05;;;8.50;99.90;;;;;;5076217;28;20360;-68
2022/03/27 06:20:48;;;;;;;13.63;10.50;;;8.60;99.90;;;;;;5066354;28;20247;-69
2022/03/27 06:23:14;;;;;;;13.43;10.00;;;8.60;99.90;;;;;;5069754;28;20285;-68
2022/03/27 06:25:41;;;;;;;14.05;11.50;;;8.70;99.90;;;;;;5079353;28;20238;-71
2022/03/27 06:28:08;;;;;;;20.70;11.77;;;8.80;99.90;;;;;;5077149;28;20205;-70
2022/03/27 06:30:36;;;;;;;15.25;12.00;;;8.80;99.90;;;;;;5065921;28;20254;-70
2022/03/27 06:33:03;;;;;;;13.82;11.27;;;8.80;99.90;;;;;;5075013;28;20197;-69
2022/03/27 06:35:31;;;;;;;16.20;11.23;;;8.90;99.90;;;;;;5065193;28;20224;-71
2022/03/27 06:37:58;;;;;;;13.35;11.52;;;8.90;99.90;;;;;;5067634;28;20209;-70
2022/03/27 06:40:25;;;;;;;15.05;12.65;;;8.90;99.90;;;;;;5071030;28;20649;-71
2022/03/27 06:42:52;;;;;;;15.45;12.15;;;8.90;99.90;;;;;;5069201;28;20204;-69
2022/03/27 06:45:19;;;;;;;16.60;9.65;;;8.90;99.90;;;;;;5074390;28;20209;-70
2022/03/27 06:47:48;;;;;;;11.55;10.20;;;8.90;99.90;;;;;;5068954;28;20289;-68
2022/03/27 06:50:16;;;;;;;11.55;9.40;;;9.00;99.90;;;;;;5071161;28;20201;-75
2022/03/27 06:52:44;;;;;;;12.35;10.65;;;9.10;99.90;;;;;;5067887;28;20292;-75
2022/03/27 06:55:12;;;;;;;14.48;11.20;;;9.20;99.90;;;;;;5069221;28;20349;-72
2022/03/27 06:57:39;;;;;;;10.93;9.60;;;9.30;99.90;;;;;;5065511;28;20262;-74
2022/03/27 07:03:10;;;;;;;14.20;11.77;;;9.70;99.90;;;;;;5063539;28;20220;-72
2022/03/27 07:05:39;;;;;;;11.50;9.00;;;9.90;99.90;;;;;;5071975;28;20252;-71
2022/03/27 07:08:06;;;;;;;15.40;11.80;;;10.10;99.90;;;;;;5072038;28;20499;-70
2022/03/27 07:10:33;;;;;;;12.47;10.23;;;10.20;99.90;;;;;;5067898;28;20443;-69
2022/03/27 07:13:00;;;;;;;13.80;12.00;;;10.40;99.90;;;;;;5069010;28;20532;-71
2022/03/27 07:15:27;;;;;;;13.53;10.23;;;10.50;99.90;;;;;;5072512;28;21213;-71
2022/03/27 07:17:55;;;;;;;14.97;10.97;;;10.60;99.90;;;;;;5073153;28;20447;-71
2022/03/27 07:20:25;;;;;;;17.77;12.73;;;10.60;99.90;;;;;;5065306;28;20935;-72
2022/03/27 07:22:53;;;;;;;15.03;11.73;;;10.70;99.90;;;;;;5070083;28;20473;-72
2022/03/27 07:25:20;;;;;;;11.50;9.70;;;10.80;99.90;;;;;;5069533;28;20601;-69
2022/03/27 07:27:48;;;;;;;14.63;11.87;;;10.90;99.90;;;;;;5067268;28;20499;-72
2022/03/27 07:30:15;;;;;;;13.43;11.83;;;11.00;99.90;;;;;;5064586;28;20470;-69
2022/03/27 07:32:41;;;;;;;12.70;11.30;;;11.10;99.90;;;;;;5060727;28;20467;-70
2022/03/27 07:35:11;;;;;;;12.97;10.67;;;11.30;99.90;;;;;;5083290;28;20489;-72
2022/03/27 07:37:39;;;;;;;12.67;10.23;;;11.40;99.90;;;;;;5081332;28;20454;-69
2022/03/27 07:40:08;;;;;;;12.67;10.93;;;11.50;99.90;;;;;;5069792;28;20456;-72
2022/03/27 07:42:36;;;;;;;15.83;10.70;;;11.60;99.90;;;;;;5079816;28;20443;-72
2022/03/27 07:45:03;;;;;;;13.17;11.37;;;11.80;99.90;;;;;;5072041;28;20474;-71
2022/03/27 07:47:30;;;;;;;11.37;10.10;;;11.80;99.90;;;;;;5072998;28;20934;-70
2022/03/27 07:49:57;;;;;;;17.27;11.43;;;11.90;99.90;;;;;;5074511;28;20967;-71
2022/03/27 07:52:25;;;;;;;16.27;11.50;;;12.00;99.90;;;;;;5068208;28;20530;-71
2022/03/27 07:54:52;;;;;;;13.70;10.83;;;12.10;99.90;;;;;;5066495;28;20475;-71
2022/03/27 07:57:20;;;;;;;13.83;11.60;;;12.10;99.90;;;;;;5071073;28;20960;-69
2022/03/27 07:59:47;;;;;;;13.30;11.30;;;12.10;99.90;;;;;;5072421;28;20535;-69
2022/03/27 08:02:14;;;;;;;13.20;10.13;;;12.20;99.90;;;;;;5078616;28;20446;-67
2022/03/27 08:04:40;;;;;;;14.50;9.97;;;12.40;99.90;;;;;;5061617;28;20566;-70
2022/03/27 08:07:07;;;;;;;12.50;11.00;;;12.40;99.90;;;;;;5073439;28;20515;-69
2022/03/27 08:09:35;;;;;;;10.00;8.63;;;12.50;99.90;;;;;;5074678;28;20560;-70
2022/03/27 08:12:02;;;;;;;11.13;8.43;;;12.40;99.90;;;;;;5056592;28;20466;-71
2022/03/27 08:14:31;;;;;;;11.83;9.13;;;12.60;99.90;;;;;;5064402;28;20574;-71
2022/03/27 08:16:58;;;;;;;13.60;10.07;;;12.80;99.90;;;;;;5070239;28;21087;-70
2022/03/27 08:19:24;;;;;;;10.30;9.20;;;13.00;99.90;;;;;;5067016;28;20535;-71
2022/03/27 08:21:53;;;;;;;11.80;8.73;;;13.10;99.90;;;;;;5079718;28;20900;-69
2022/03/27 08:24:19;;;;;;;10.30;9.00;;;13.20;99.90;;;;;;5071306;28;20997;-68
2022/03/27 08:26:55;;;;;;;9.53;6.97;;;13.40;99.90;;;;;;5073412;28;20525;-69
2022/03/27 08:29:23;;;;;;;12.83;7.70;;;13.50;99.90;;;;;;5078507;28;20439;-70
2022/03/27 08:31:50;;;;;;;10.10;8.27;;;13.70;99.90;;;;;;5066234;28;20507;-72
2022/03/27 08:34:18;;;;;;;11.30;8.70;;;13.80;99.90;;;;;;5069885;28;20463;-69
2022/03/27 08:36:45;;;;;;;9.73;8.27;;;13.90;99.90;;;;;;5080713;28;20489;-69
2022/03/27 08:39:11;;;;;;;9.37;8.30;;;13.90;99.90;;;;;;5068295;28;20504;-66
2022/03/27 08:41:43;;;;;;;8.13;6.77;;;14.10;99.90;;;;;;5068091;28;20459;-68
2022/03/27 08:44:13;;;;;;;10.23;8.07;;;14.40;99.90;;;;;;5074816;28;20493;-68
2022/03/27 08:46:41;;;;;;;9.93;8.13;;;14.50;99.90;;;;;;5066864;28;20558;-68
2022/03/27 08:49:10;;;;;;;9.80;8.00;;;14.70;99.90;;;;;;5074617;28;20789;-68
2022/03/27 08:51:45;;;;;;;8.10;7.20;;;14.80;99.90;;;;;;5075702;28;20550;-70
2022/03/27 08:54:16;;;;;;;9.83;7.60;;;14.80;99.90;;;;;;5072063;28;20467;-67
2022/03/27 08:57:01;;;;;;;9.13;8.23;;;15.00;99.90;;;;;;5080875;28;20490;-71
2022/03/27 08:59:31;;;;;;;8.37;7.53;;;15.20;99.90;;;;;;5076489;28;20542;-69
2022/03/27 09:01:59;;;;;;;9.73;7.10;;;15.40;99.90;;;;;;5064846;28;20539;-69
2022/03/27 09:04:25;;;;;;;8.17;6.97;;;15.60;99.90;;;;;;5067821;28;20543;-70
2022/03/27 09:06:52;;;;;;;8.40;7.53;;;15.70;99.90;;;;;;5061737;28;21000;-70
2022/03/27 09:09:19;;;;;;;8.37;7.60;;;15.90;99.90;;;;;;5073514;28;20499;-67
2022/03/27 09:11:46;;;;;;;8.23;7.33;;;16.00;99.90;;;;;;5069597;28;20447;-70
2022/03/27 09:14:16;;;;;;;8.10;7.03;;;16.10;99.90;;;;;;5065414;28;20577;-70
2022/03/27 09:17:04;;;;;;;8.70;7.33;;;16.30;99.90;;;;;;5064182;28;20499;-71
2022/03/27 09:19:39;;;;;;;8.67;6.97;;;16.50;99.90;;;;;;5063018;28;20941;-70
2022/03/27 09:22:14;;;;;;;10.43;9.20;;;16.40;99.90;;;;;;5062748;28;20517;-73
2022/03/27 09:24:42;;;;;;;9.37;7.97;;;16.50;99.90;;;;;;5065790;28;20865;-71
2022/03/27 09:27:09;;;;;;;9.77;7.60;;;16.70;99.90;;;;;;5063698;28;20443;-71
2022/03/27 09:29:55;;;;;;;9.80;7.97;;;17.00;99.90;;;;;;5063656;28;21027;-72
2022/03/27 09:32:31;;;;;;;8.20;6.87;;;17.10;99.90;;;;;;5064550;28;20466;-72
2022/03/27 09:35:04;;;;;;;10.13;8.10;;;17.20;99.90;;;;;;5064276;28;20538;-71
2022/03/27 09:37:35;;;;;;;9.13;7.13;;;17.30;99.90;;;;;;5063422;28;20487;-71
2022/03/27 09:40:03;;;;;;;8.13;7.33;;;17.50;99.90;;;;;;5063672;28;20480;-70
2022/03/27 09:42:30;;;;;;;11.37;9.03;;;17.60;99.90;;;;;;5063941;28;20508;-70
2022/03/27 09:45:15;;;;;;;9.07;8.17;;;17.80;99.90;;;;;;5064594;28;20467;-70
2022/03/27 09:47:44;;;;;;;12.37;9.40;;;18.00;99.90;;;;;;5062801;28;20547;-70
2022/03/27 09:50:30;;;;;;;11.60;8.80;;;18.10;99.90;;;;;;5061926;28;20456;-71
2022/03/27 09:53:19;;;;;;;10.83;9.70;;;18.20;99.90;;;;;;5061037;28;20985;-70
2022/03/27 09:55:46;;;;;;;10.60;9.17;;;18.30;99.90;;;;;;5062108;28;20502;-69
2022/03/27 09:58:15;;;;;;;8.73;7.80;;;18.40;99.90;;;;;;5061960;28;20459;-72
2022/03/27 10:00:42;;;;;;;9.57;8.63;;;18.50;99.90;;;;;;5061092;28;20555;-69
2022/03/27 10:03:11;;;;;;;9.27;7.70;;;18.60;99.90;;;;;;5065334;28;20526;-70
2022/03/27 10:05:38;;;;;;;7.93;7.20;;;18.80;99.90;;;;;;5061164;28;20726;-71
2022/03/27 10:08:06;;;;;;;9.37;7.63;;;19.00;99.90;;;;;;5061831;28;20448;-70
2022/03/27 10:10:33;;;;;;;8.33;7.43;;;19.20;99.90;;;;;;5061362;28;20488;-69
2022/03/27 10:13:00;;;;;;;9.40;7.73;;;19.20;99.90;;;;;;5063661;28;20451;-69
2022/03/27 10:15:29;;;;;;;9.07;7.90;;;19.30;99.90;;;;;;5063671;28;20632;-70
2022/03/27 10:17:58;;;;;;;10.37;8.23;;;19.30;99.90;;;;;;5063576;28;20560;-70
2022/03/27 10:20:29;;;;;;;9.43;8.33;;;19.40;99.90;;;;;;5058296;28;20561;-70
2022/03/27 10:23:02;;;;;;;8.03;7.20;;;19.70;99.90;;;;;;5059199;28;20444;-71
2022/03/27 10:25:35;;;;;;;10.63;7.90;;;19.40;99.90;;;;;;5062628;28;20532;-70
2022/03/27 10:28:03;;;;;;;9.20;7.90;;;19.40;99.90;;;;;;5064332;28;20508;-70
2022/03/27 10:30:30;;;;;;;9.20;7.53;;;19.50;99.90;;;;;;5061976;28;20455;-71
2022/03/27 10:32:57;;;;;;;7.90;6.60;;;19.50;99.90;;;;;;5064170;28;20481;-70
2022/03/27 10:35:38;;;;;;;7.73;6.37;;;19.70;99.90;;;;;;5065600;28;21003;-69
2022/03/27 10:38:16;;;;;;;8.23;7.13;;;19.90;99.90;;;;;;5063103;28;20562;-70
2022/03/27 10:40:52;;;;;;;8.73;7.83;;;20.10;99.90;;;;;;5063492;28;20911;-69
2022/03/27 10:43:27;;;;;;;7.13;6.50;;;20.30;99.90;;;;;;5062090;28;20864;-64
2022/03/27 10:46:17;;;;;;;7.37;6.23;;;20.50;99.90;;;;;;5060195;28;20466;-63
2022/03/27 10:48:45;;;;;;;6.23;5.63;;;20.70;99.90;;;;;;5060046;28;20459;-65
2022/03/27 10:51:33;;;;;;;6.47;5.80;;;20.90;99.90;;;;;;5061625;28;20506;-63
2022/03/27 10:54:05;;;;;;;7.90;5.10;;;21.20;99.90;;;;;;5061281;28;20471;-63
2022/03/27 10:56:34;;;;;;;6.53;5.93;;;21.50;99.90;;;;;;5062697;28;20549;-64
2022/03/27 10:59:09;;;;;;;6.10;5.50;;;21.80;99.90;;;;;;5059994;28;20530;-63
2022/03/27 11:01:42;;;;;;;6.67;5.07;;;21.90;99.90;;;;;;5061857;28;20624;-63
2022/03/27 11:04:10;;;;;;;7.43;6.33;;;22.20;99.90;;;;;;5059441;28;20507;-61
2022/03/27 11:06:39;;;;;;;7.37;5.97;;;22.30;99.90;;;;;;5059526;28;20447;-63
2022/03/27 11:09:10;;;;;;;6.20;5.57;;;22.40;99.90;;;;;;5064255;28;20458;-64
2022/03/27 11:12:04;;;;;;;6.90;5.20;;;22.50;99.90;;;;;;5062220;28;20446;-65
2022/03/27 11:14:57;;;;;;;7.50;6.27;;;22.70;99.90;;;;;;5061925;28;20822;-62
2022/03/27 11:17:35;;;;;;;7.03;6.00;;;22.80;99.90;;;;;;5062849;28;20506;-66
2022/03/27 11:20:02;;;;;;;6.77;5.77;;;23.00;99.90;;;;;;5059064;28;20446;-67
2022/03/27 11:22:49;;;;;;;5.93;5.40;;;23.10;99.90;;;;;;5060481;28;20455;-66
2022/03/27 11:25:34;;;;;;;3.87;3.47;;;23.20;99.90;;;;;;5061726;28;20463;-63
2022/03/27 11:28:12;;;;;;;5.43;4.90;;;23.40;99.90;;;;;;5061633;28;20526;-67
2022/03/27 11:31:00;;;;;;;5.23;4.27;;;23.90;99.90;;;;;;5060278;28;20455;-64
2022/03/27 11:33:29;;;;;;;4.73;4.07;;;24.30;99.90;;;;;;5063451;28;20594;-63
2022/03/27 11:36:24;;;;;;;5.13;4.23;;;24.90;99.90;;;;;;5059849;28;20479;-63
2022/03/27 11:39:02;;;;;;;4.30;3.90;;;25.70;99.90;;;;;;5061213;28;20888;-62
2022/03/27 11:41:38;;;;;;;4.63;4.23;;;26.50;99.90;;;;;;5061493;28;20557;-62
2022/03/27 11:45:06;;;;;;;5.20;4.70;;;27.10;99.90;;;;;;5061613;28;20475;-63
2022/03/27 11:47:12;;;;;;;6.00;5.50;;;28.00;99.20;;;;;;5062629;28;20508;-61
2022/03/27 11:49:40;;;;;;;5.13;4.63;;;28.50;97.00;;;;;;5069884;28;20634;-62
2022/03/27 11:52:07;;;;;;;4.13;3.40;;;29.00;95.30;;;;;;5075821;28;20539;-63
2022/03/27 11:54:37;;;;;;;4.30;3.93;;;29.70;93.40;;;;;;5070417;28;20505;-64
2022/03/27 11:57:05;;;;;;;5.03;3.80;;;30.40;92.10;;;;;;5066583;28;20486;-64
2022/03/27 11:59:43;;;;;;;4.70;4.20;;;31.10;90.50;;;;;;5065401;28;20453;-63
2022/03/27 12:02:10;;;;;;;3.90;3.60;;;31.10;88.00;;;;;;5070619;28;20549;-63
2022/03/27 12:04:50;;;;;;;4.70;4.00;;;31.10;85.50;;;;;;5075768;28;20494;-62
2022/03/27 12:07:17;;;;;;;4.13;3.83;;;31.50;84.00;;;;;;5079017;28;20471;-62
2022/03/27 12:09:45;;;;;;;4.60;4.20;;;31.80;84.00;;;;;;5066873;28;20513;-63
2022/03/27 12:12:13;;;;;;;4.60;4.20;;;33.10;80.20;;;;;;5065648;28;20462;-62
2022/03/27 12:14:51;;;;;;;;;;;33.40;77.90;;;;;;5066054;28;20501;-61
2022/03/27 12:17:19;;;;;;;4.20;3.90;;;33.60;74.80;;;;;;5080897;28;20437;-64
2022/03/27 12:19:58;;;;;;;4.50;4.10;;;33.20;75.30;;;;;;5078131;28;20319;-64
2022/03/27 12:22:39;;;;;;;4.90;4.50;;;31.50;78.40;;;;;;5070417;28;20476;-63
2022/03/27 12:25:18;;;;;;;4.37;4.07;;;29.60;75.90;;;;;;5071645;28;21024;-64
2022/03/27 12:30:35;;;;;;;4.60;4.20;;;27.30;83.20;;;;;;5069359;28;20456;-65
2022/03/27 12:33:02;;;;;;;4.80;3.70;;;27.80;81.70;;;;;;5070920;28;20895;-64
2022/03/27 12:35:30;;;;;;;2.90;2.70;;;29.30;81.30;;;;;;5069837;28;20503;-65
2022/03/27 12:37:56;;;;;;;4.20;3.70;;;30.90;79.00;;;;;;5070919;28;20491;-65
2022/03/27 12:40:25;;;;;;;4.30;4.00;;;32.10;75.30;;;;;;5078391;28;20553;-63
2022/03/27 12:42:53;;;;;;;4.50;3.87;;;31.70;75.90;;;;;;5084400;28;20532;-66
2022/03/27 12:45:29;;;;;;;3.80;3.50;;;32.70;73.60;;;;;;5068206;28;20467;-66
2022/03/27 12:47:58;;;;;;;3.27;3.00;;;33.80;69.80;;;;;;5070043;28;20465;-65
2022/03/27 12:50:36;;;;;;;3.60;3.30;;;34.90;67.20;;;;;;5069724;28;20603;-62
2022/03/27 12:53:05;;;;;;;3.67;3.37;;;34.90;68.70;;;;;;5079614;28;20842;-63
2022/03/27 12:55:45;;;;;;;2.93;2.73;;;34.40;68.60;;;;;;5071045;28;20514;-67
2022/03/27 12:58:13;;;;;;;3.57;3.23;;;35.00;66.90;;;;;;5074017;28;20465;-68
2022/03/27 13:00:41;;;;;;;3.23;2.97;;;35.10;65.20;;;;;;5071672;28;20477;-67
2022/03/27 13:03:14;;;;;;;4.10;3.80;;;32.90;65.60;;;;;;5075858;28;20597;-66
2022/03/27 13:05:42;;;;;;;4.50;4.20;;;30.60;68.70;;;;;;5066164;28;20449;-66
2022/03/27 13:08:09;;;;;;;3.53;3.27;;;29.30;69.80;;;;;;5071655;28;20446;-66
2022/03/27 13:10:37;;;;;;;4.47;4.17;;;28.40;71.80;;;;;;5063221;28;20837;-68